Time;durP1;ratioP1;P1;durP2;ratioP2;P2;SDS_P1;SDS_P2;PMS_P1;PMS_P2;Temp;Humidity;BMP_temperature;BMP_pressure;BME280_temperature;BME280_humidity;BME280_pressure;Samples;Min_cycle;Max_cycle;Signal;HPM_P1;HPM_P2
2022/09/08 04:56:46;;;;;;;0.60;0.22;;;24.20;92.80;;;;;;5044850;28;45162;-80
2022/09/08 04:59:14;;;;;;;0.70;0.25;;;24.20;92.80;;;;;;5053785;28;45265;-74
2022/09/08 05:01:41;;;;;;;0.95;0.30;;;23.80;93.00;;;;;;5063640;28;45506;-75
2022/09/08 05:04:09;;;;;;;0.40;0.32;;;23.90;93.10;;;;;;5066224;28;48076;-76
2022/09/08 05:06:49;;;;;;;0.38;0.30;;;23.90;93.30;;;;;;5066374;28;45376;-75
2022/09/08 05:09:16;;;;;;;0.28;0.28;;;23.90;93.20;;;;;;5067491;28;45281;-76
2022/09/08 05:11:43;;;;;;;2.10;0.40;;;23.90;93.40;;;;;;5062905;28;45163;-75
2022/09/08 05:14:10;;;;;;;0.22;0.20;;;23.90;93.30;;;;;;5066818;28;48049;-75
2022/09/08 05:16:38;;;;;;;0.65;0.30;;;23.90;93.30;;;;;;5066655;28;45287;-76
2022/09/08 05:19:06;;;;;;;0.40;0.40;;;23.90;93.40;;;;;;5066587;28;45254;-76
2022/09/08 05:21:36;;;;;;;1.13;0.40;;;23.90;93.10;;;;;;5067106;28;45571;-76
2022/09/08 05:24:04;;;;;;;1.10;0.30;;;23.90;92.90;;;;;;5066940;28;47345;-76
2022/09/08 05:26:31;;;;;;;0.57;0.35;;;23.90;93.00;;;;;;5066954;28;45419;-76
2022/09/08 05:28:59;;;;;;;0.22;0.22;;;23.90;92.80;;;;;;5067058;28;45186;-75
2022/09/08 05:31:28;;;;;;;0.20;0.20;;;23.90;92.70;;;;;;5066095;28;45797;-76
2022/09/08 05:33:58;;;;;;;0.30;0.30;;;23.90;92.70;;;;;;5066452;28;48254;-76
2022/09/08 05:36:27;;;;;;;1.83;0.52;;;23.90;92.80;;;;;;5066672;28;45206;-76
2022/09/08 05:38:55;;;;;;;1.67;0.20;;;23.90;92.70;;;;;;5066033;28;45205;-76
2022/09/08 05:41:23;;;;;;;0.52;0.32;;;23.90;92.80;;;;;;5066896;28;45614;-76
2022/09/08 05:43:52;;;;;;;1.00;0.30;;;24.00;92.90;;;;;;5066696;28;46539;-76
2022/09/08 05:46:20;;;;;;;0.65;0.30;;;23.90;92.70;;;;;;5066656;28;46174;-76
2022/09/08 05:48:58;;;;;;;0.20;0.20;;;23.90;92.70;;;;;;5066943;28;45254;-76
2022/09/08 05:54:47;;;;;;;1.35;0.20;;;23.90;92.70;;;;;;5063705;28;45270;-76
2022/09/08 05:57:14;;;;;;;2.13;0.20;;;23.90;92.70;;;;;;5066550;28;45407;-76
2022/09/08 05:59:42;;;;;;;0.22;0.20;;;23.90;92.80;;;;;;5066540;28;45276;-76
2022/09/08 06:02:09;;;;;;;0.50;0.30;;;23.90;92.90;;;;;;5066883;28;45250;-76
2022/09/08 06:04:37;;;;;;;0.88;0.30;;;23.90;93.00;;;;;;5066254;28;46605;-76
2022/09/08 06:07:04;;;;;;;0.52;0.30;;;23.90;93.00;;;;;;5066552;28;46246;-75
2022/09/08 06:09:32;;;;;;;0.45;0.30;;;23.90;93.10;;;;;;5048682;28;45366;-76
2022/09/08 06:11:58;;;;;;;0.63;0.20;;;23.90;93.30;;;;;;5066336;28;45571;-76
2022/09/08 06:14:25;;;;;;;1.25;0.28;;;23.90;93.10;;;;;;5066355;28;47872;-76
2022/09/08 06:16:52;;;;;;;0.10;0.10;;;23.90;93.20;;;;;;5066274;28;45271;-76
2022/09/08 06:19:19;;;;;;;0.30;0.20;;;23.90;93.40;;;;;;5066444;28;45190;-75
2022/09/08 06:21:47;;;;;;;1.63;0.30;;;23.90;93.20;;;;;;5066613;28;45190;-76
2022/09/08 06:24:14;;;;;;;0.80;0.32;;;23.90;93.60;;;;;;5066159;28;46278;-76
2022/09/08 06:26:54;;;;;;;0.43;0.15;;;23.90;93.30;;;;;;5065952;28;45359;-76
2022/09/08 06:29:31;;;;;;;0.45;0.38;;;23.90;93.10;;;;;;5066153;28;45325;-76
2022/09/08 06:32:02;;;;;;;0.80;0.10;;;23.90;93.10;;;;;;5063388;28;45264;-76
2022/09/08 06:34:36;;;;;;;0.43;0.30;;;23.90;92.90;;;;;;5065912;28;47325;-76
2022/09/08 06:37:08;;;;;;;0.82;0.20;;;23.90;93.10;;;;;;5062993;28;45194;-76
2022/09/08 06:39:44;;;;;;;0.65;0.30;;;23.90;93.10;;;;;;5066001;28;45435;-76
2022/09/08 06:42:16;;;;;;;0.35;0.20;;;23.90;93.10;;;;;;5066271;28;45592;-76
2022/09/08 06:44:45;;;;;;;0.30;0.22;;;23.90;93.10;;;;;;5065936;28;48144;-76
2022/09/08 06:47:15;;;;;;;1.15;0.30;;;23.90;93.30;;;;;;5065795;28;45219;-76
2022/09/08 06:49:42;;;;;;;0.28;0.20;;;23.90;93.10;;;;;;5066248;28;45204;-76
2022/09/08 06:52:19;;;;;;;0.20;0.15;;;23.90;93.30;;;;;;5065681;28;45452;-76
2022/09/08 06:54:52;;;;;;;2.40;0.30;;;23.90;93.30;;;;;;5065751;28;47611;-76
2022/09/08 06:57:42;;;;;;;0.88;0.40;;;23.90;93.20;;;;;;5065504;28;46001;-76
2022/09/08 07:00:15;;;;;;;1.98;0.40;;;23.90;93.00;;;;;;5065392;28;45136;-75
2022/09/08 07:02:55;;;;;;;0.85;0.25;;;23.90;93.20;;;;;;5065694;28;45363;-75
2022/09/08 07:05:41;;;;;;;0.80;0.22;;;23.90;93.20;;;;;;5064824;28;45475;-76
2022/09/08 07:08:21;;;;;;;0.60;0.28;;;23.90;93.30;;;;;;5064862;28;45204;-75
2022/09/08 07:10:53;;;;;;;0.40;0.38;;;23.90;93.20;;;;;;5054376;28;45419;-75
2022/09/08 07:13:26;;;;;;;0.40;0.15;;;23.80;93.10;;;;;;5065182;28;45399;-75
2022/09/08 07:16:03;;;;;;;0.28;0.20;;;23.80;93.10;;;;;;5064583;28;48274;-76
2022/09/08 07:18:38;;;;;;;0.32;0.20;;;23.90;93.00;;;;;;5044838;28;45292;-75
2022/09/08 07:21:15;;;;;;;0.17;0.10;;;23.80;93.10;;;;;;5069117;28;45336;-75
2022/09/08 07:23:44;;;;;;;0.45;0.30;;;23.80;93.20;;;;;;5063706;28;45429;-75
2022/09/08 07:26:20;;;;;;;0.20;0.20;;;23.80;93.00;;;;;;5063995;28;48715;-75
2022/09/08 07:28:51;;;;;;;0.52;0.20;;;23.80;93.00;;;;;;5058714;28;45937;-75
2022/09/08 07:31:20;;;;;;;0.30;0.30;;;23.80;92.90;;;;;;5066806;28;45463;-75
2022/09/08 07:33:51;;;;;;;2.00;0.40;;;23.80;92.90;;;;;;5068488;28;45267;-75
2022/09/08 07:36:25;;;;;;;0.50;0.30;;;23.80;92.90;;;;;;5067878;28;46653;-75
2022/09/08 07:38:55;;;;;;;0.40;0.20;;;23.80;93.00;;;;;;5068659;28;45315;-75
2022/09/08 07:41:25;;;;;;;0.55;0.20;;;23.80;93.00;;;;;;5056533;28;45245;-75
2022/09/08 07:43:59;;;;;;;0.25;0.20;;;23.80;92.90;;;;;;5048220;28;45360;-75
2022/09/08 07:46:43;;;;;;;0.32;0.30;;;23.80;93.20;;;;;;5055163;28;45659;-75
2022/09/08 07:49:22;;;;;;;0.50;0.30;;;23.80;92.80;;;;;;5067741;28;45217;-76
2022/09/08 07:51:59;;;;;;;0.35;0.20;;;23.80;92.90;;;;;;5065511;28;45222;-75
2022/09/08 07:54:48;;;;;;;0.10;0.10;;;23.80;93.00;;;;;;5068221;28;45399;-75
2022/09/08 07:57:21;;;;;;;0.20;0.20;;;23.80;93.00;;;;;;5066805;28;45282;-75
2022/09/08 07:59:58;;;;;;;0.22;0.20;;;23.80;92.90;;;;;;5067429;28;45411;-75
2022/09/08 08:02:57;;;;;;;1.50;0.30;;;23.80;92.90;;;;;;5068303;28;45348;-75
2022/09/08 08:05:30;;;;;;;0.20;0.13;;;23.80;93.00;;;;;;5052464;28;45679;-75
2022/09/08 08:08:10;;;;;;;0.10;0.10;;;23.80;93.00;;;;;;5068094;28;47618;-76
2022/09/08 08:10:43;;;;;;;0.10;0.10;;;23.80;93.00;;;;;;5068013;28;45316;-76
2022/09/08 08:13:18;;;;;;;0.30;0.30;;;23.80;93.10;;;;;;5068190;28;45203;-76
2022/09/08 08:15:47;;;;;;;0.45;0.22;;;23.80;93.10;;;;;;5068678;28;45435;-76
2022/09/08 08:18:24;;;;;;;0.17;0.15;;;23.80;93.10;;;;;;5067566;28;46328;-76
2022/09/08 08:20:53;;;;;;;0.30;0.10;;;23.80;93.20;;;;;;5067701;28;45283;-75
2022/09/08 08:23:51;;;;;;;0.13;0.10;;;23.80;93.40;;;;;;5067559;28;45193;-76
2022/09/08 08:26:31;;;;;;;0.10;0.10;;;23.80;93.20;;;;;;5060703;28;45670;-76
2022/09/08 08:29:12;;;;;;;0.17;0.17;;;23.80;93.00;;;;;;5067633;28;46310;-76
2022/09/08 08:31:44;;;;;;;0.20;0.10;;;23.80;93.00;;;;;;5068238;28;45554;-76
2022/09/08 08:34:18;;;;;;;0.43;0.10;;;23.80;93.10;;;;;;5068306;28;45330;-76
2022/09/08 08:36:48;;;;;;;0.30;0.10;;;23.80;93.00;;;;;;5067894;28;45339;-76
2022/09/08 08:39:18;;;;;;;0.22;0.20;;;23.80;93.10;;;;;;5066735;28;45886;-76
2022/09/08 08:42:05;;;;;;;0.10;0.10;;;23.90;93.10;;;;;;5064527;28;45222;-76
2022/09/08 08:44:58;;;;;;;0.30;0.10;;;23.80;93.00;;;;;;5064864;28;45226;-75
2022/09/08 08:47:51;;;;;;;0.50;0.30;;;23.80;93.00;;;;;;5067623;28;45436;-76
2022/09/08 08:50:31;;;;;;;0.65;0.20;;;23.80;92.90;;;;;;5060851;28;47041;-75
2022/09/08 08:53:21;;;;;;;0.10;0.10;;;23.80;93.00;;;;;;5067353;28;45934;-76
2022/09/08 08:55:58;;;;;;;0.25;0.10;;;23.80;93.00;;;;;;5068109;28;45296;-75
2022/09/08 08:58:48;;;;;;;0.32;0.20;;;23.80;92.80;;;;;;5067587;28;45222;-76
2022/09/08 09:01:29;;;;;;;0.20;0.20;;;23.80;92.90;;;;;;5067319;28;47130;-76
2022/09/08 09:04:30;;;;;;;0.28;0.20;;;23.80;92.90;;;;;;5067375;28;46498;-75
2022/09/08 09:07:16;;;;;;;1.05;0.20;;;23.80;92.80;;;;;;5067331;28;45201;-76
2022/09/08 09:10:03;;;;;;;0.65;0.28;;;23.80;92.90;;;;;;5067376;28;45380;-76
2022/09/08 09:12:54;;;;;;;0.20;0.10;;;23.80;92.80;;;;;;5046852;28;45271;-75
2022/09/08 09:16:01;;;;;;;1.02;0.10;;;23.80;92.80;;;;;;5027225;28;45342;-75
2022/09/08 09:19:18;;;;;;;0.20;0.20;;;23.80;92.80;;;;;;5025855;28;45308;-76
2022/09/08 09:21:52;;;;;;;0.20;0.13;;;23.80;92.80;;;;;;5029647;28;45718;-76
2022/09/08 09:24:39;;;;;;;0.10;0.10;;;23.80;92.70;;;;;;5057131;28;48326;-75
2022/09/08 09:27:14;;;;;;;0.40;0.20;;;23.80;92.80;;;;;;5067081;28;45379;-76
2022/09/08 09:29:42;;;;;;;0.10;0.10;;;23.80;92.80;;;;;;5066898;28;45256;-76
2022/09/08 09:32:48;;;;;;;0.30;0.10;;;23.80;93.20;;;;;;5067345;28;45350;-76
2022/09/08 09:35:53;;;;;;;0.10;0.10;;;23.80;92.70;;;;;;5066964;28;48288;-76
2022/09/08 09:38:43;;;;;;;0.30;0.20;;;23.80;92.60;;;;;;5054051;28;45217;-75
2022/09/08 09:41:34;;;;;;;0.98;0.22;;;23.80;92.60;;;;;;5066660;28;45282;-76
2022/09/08 09:44:17;;;;;;;0.10;0.10;;;23.80;92.50;;;;;;5049840;28;45194;-76
2022/09/08 09:47:01;;;;;;;0.30;0.10;;;23.80;92.50;;;;;;5066407;28;45271;-76
2022/09/08 09:49:54;;;;;;;0.68;0.10;;;23.80;92.50;;;;;;5066176;28;45218;-76
2022/09/08 09:52:32;;;;;;;0.38;0.10;;;23.90;92.40;;;;;;5066115;28;45280;-76
2022/09/08 09:55:11;;;;;;;0.25;0.20;;;23.80;92.40;;;;;;5066870;28;45044;-75
2022/09/08 09:58:09;;;;;;;0.30;0.17;;;23.80;92.30;;;;;;5066568;28;47573;-76
2022/09/08 10:00:54;;;;;;;0.43;0.10;;;23.80;92.30;;;;;;5066274;28;45417;-76
2022/09/08 10:03:55;;;;;;;0.22;0.20;;;23.80;92.30;;;;;;5066709;28;45329;-76
2022/09/08 10:06:30;;;;;;;0.13;0.10;;;23.80;92.30;;;;;;5066184;28;45612;-76
2022/09/08 10:09:38;;;;;;;0.10;0.10;;;23.80;92.30;;;;;;5066303;28;46575;-75
2022/09/08 10:12:37;;;;;;;0.10;0.10;;;23.80;92.30;;;;;;5066221;28;45266;-75
2022/09/08 10:15:53;;;;;;;0.00;0.00;;;23.80;92.20;;;;;;5066692;28;45265;-76
2022/09/08 10:18:49;;;;;;;0.20;0.20;;;23.80;92.20;;;;;;5066312;28;45163;-76
2022/09/08 10:21:49;;;;;;;0.20;0.10;;;23.80;92.10;;;;;;5063274;28;46890;-76
2022/09/08 10:24:44;;;;;;;0.30;0.10;;;23.80;92.00;;;;;;5066102;28;45167;-75
2022/09/08 10:27:31;;;;;;;0.68;0.28;;;23.80;92.00;;;;;;5066106;28;45226;-76
2022/09/08 10:30:21;;;;;;;0.30;0.17;;;23.80;92.00;;;;;;5068738;28;45562;-76
2022/09/08 10:33:31;;;;;;;0.10;0.10;;;23.80;92.00;;;;;;5059651;28;48932;-76
2022/09/08 10:36:06;;;;;;;0.10;0.10;;;23.80;91.80;;;;;;4964438;28;45957;-76
2022/09/08 10:39:12;;;;;;;0.10;0.10;;;23.80;91.80;;;;;;5047938;28;45409;-76
2022/09/08 10:42:25;;;;;;;0.15;0.10;;;23.80;91.70;;;;;;5066222;28;45132;-76
2022/09/08 10:45:11;;;;;;;0.98;0.25;;;23.80;91.60;;;;;;5065874;28;45326;-75
2022/09/08 10:48:08;;;;;;;0.03;0.03;;;23.80;91.60;;;;;;5066010;28;46288;-76
2022/09/08 10:50:36;;;;;;;0.08;0.08;;;23.80;91.60;;;;;;5066090;28;45226;-76
2022/09/08 10:53:34;;;;;;;0.03;0.00;;;23.80;91.60;;;;;;5065762;28;45123;-76
2022/09/08 10:56:07;;;;;;;0.47;0.20;;;23.80;91.60;;;;;;5057689;28;46444;-76
2022/09/08 10:59:04;;;;;;;0.20;0.20;;;23.80;91.60;;;;;;5065175;28;45358;-76
2022/09/08 11:02:04;;;;;;;0.25;0.17;;;23.80;91.40;;;;;;5065876;28;45360;-76
2022/09/08 11:04:56;;;;;;;0.17;0.17;;;23.90;91.40;;;;;;5065827;28;45227;-76
2022/09/08 11:07:42;;;;;;;0.00;0.00;;;23.80;91.40;;;;;;5065467;28;46529;-76
2022/09/08 11:10:25;;;;;;;0.50;0.10;;;23.80;91.40;;;;;;5062632;28;45143;-76
2022/09/08 11:13:17;;;;;;;0.10;0.10;;;23.80;91.30;;;;;;5065450;28;45214;-75
2022/09/08 11:16:07;;;;;;;0.20;0.20;;;23.90;91.30;;;;;;5065761;28;45150;-75
2022/09/08 11:18:46;;;;;;;0.13;0.10;;;23.80;91.20;;;;;;5065726;28;47911;-76
2022/09/08 11:21:26;;;;;;;0.20;0.20;;;23.80;91.20;;;;;;5065470;28;45191;-76
2022/09/08 11:24:05;;;;;;;0.10;0.10;;;23.80;91.10;;;;;;5069823;28;45300;-76
2022/09/08 11:26:40;;;;;;;0.68;0.20;;;23.80;91.20;;;;;;5065686;28;45139;-76
2022/09/08 11:29:10;;;;;;;0.43;0.20;;;23.80;91.10;;;;;;5065480;28;45491;-76
2022/09/08 11:31:51;;;;;;;0.10;0.10;;;23.80;91.10;;;;;;5065317;28;45247;-75
2022/09/08 11:34:42;;;;;;;0.10;0.10;;;23.80;91.10;;;;;;5065657;28;45138;-76
2022/09/08 11:37:42;;;;;;;0.55;0.10;;;23.80;91.10;;;;;;5065618;28;45297;-75
2022/09/08 11:40:54;;;;;;;0.10;0.10;;;23.80;91.10;;;;;;5065187;28;45702;-76
2022/09/08 11:43:51;;;;;;;0.13;0.10;;;23.90;91.00;;;;;;5039364;28;45204;-76
2022/09/08 11:46:38;;;;;;;0.17;0.10;;;23.80;90.90;;;;;;5065458;28;45389;-76
2022/09/08 11:49:37;;;;;;;0.28;0.10;;;23.90;90.80;;;;;;5065515;28;45523;-76
2022/09/08 11:52:46;;;;;;;0.82;0.15;;;23.80;90.80;;;;;;5044108;28;45452;-76
2022/09/08 11:55:39;;;;;;;0.00;0.00;;;23.80;90.70;;;;;;5024266;28;45341;-76
2022/09/08 11:58:18;;;;;;;0.20;0.17;;;23.90;90.70;;;;;;5044976;28;45234;-76
2022/09/08 12:01:17;;;;;;;0.10;0.10;;;23.90;90.70;;;;;;5045140;28;45171;-76
2022/09/08 12:04:29;;;;;;;0.45;0.20;;;23.80;90.70;;;;;;5037614;28;46344;-75
2022/09/08 12:07:24;;;;;;;0.65;0.10;;;23.90;90.70;;;;;;5044756;28;45420;-76
2022/09/08 12:10:21;;;;;;;0.20;0.00;;;23.90;90.70;;;;;;5045143;28;45269;-76
2022/09/08 12:13:00;;;;;;;0.05;0.05;;;23.80;90.50;;;;;;5045037;28;45558;-76
2022/09/08 12:15:40;;;;;;;0.10;0.10;;;23.90;90.80;;;;;;5047968;28;45458;-76
2022/09/08 12:18:21;;;;;;;0.00;0.00;;;23.80;90.70;;;;;;5048143;28;45700;-76
2022/09/08 12:21:05;;;;;;;0.13;0.10;;;23.80;90.70;;;;;;5048488;28;45231;-76
2022/09/08 12:23:40;;;;;;;0.00;0.00;;;23.80;90.70;;;;;;5048276;28;45356;-76
2022/09/08 12:26:23;;;;;;;0.00;0.00;;;23.80;90.60;;;;;;5047706;28;47959;-76
2022/09/08 12:29:10;;;;;;;0.10;0.00;;;23.80;90.60;;;;;;5048098;28;45113;-76
2022/09/08 12:31:57;;;;;;;0.10;0.10;;;23.80;90.60;;;;;;5048396;28;45262;-76
2022/09/08 12:34:50;;;;;;;0.13;0.10;;;23.80;90.60;;;;;;5047870;28;45470;-76
2022/09/08 12:37:33;;;;;;;0.00;0.00;;;23.80;90.60;;;;;;5047747;28;45246;-76
2022/09/08 12:40:22;;;;;;;0.10;0.10;;;23.90;90.40;;;;;;5047992;28;45139;-76
2022/09/08 12:43:12;;;;;;;0.10;0.10;;;23.80;90.40;;;;;;5047710;28;45379;-76
2022/09/08 12:46:06;;;;;;;0.10;0.08;;;23.80;90.40;;;;;;5047668;28;45632;-76
2022/09/08 12:48:38;;;;;;;0.22;0.10;;;23.80;90.30;;;;;;5047578;28;46720;-76
2022/09/08 12:51:16;;;;;;;0.10;0.10;;;23.90;90.30;;;;;;5064499;28;45238;-76
2022/09/08 12:54:09;;;;;;;0.17;0.10;;;23.80;90.10;;;;;;5067535;28;45242;-76
2022/09/08 12:56:54;;;;;;;0.10;0.10;;;23.90;90.00;;;;;;5064450;28;45325;-76
2022/09/08 12:59:31;;;;;;;0.08;0.08;;;23.90;90.10;;;;;;5067312;28;48311;-76
2022/09/08 13:02:14;;;;;;;0.30;0.10;;;23.90;90.00;;;;;;5067745;28;45538;-76
2022/09/08 13:04:59;;;;;;;15.95;1.63;;;23.90;90.00;;;;;;5065650;28;45448;-76
2022/09/08 13:07:34;;;;;;;11.90;0.55;;;23.90;89.70;;;;;;5068682;28;45188;-77
2022/09/08 13:10:16;;;;;;;10.43;0.40;;;23.90;89.60;;;;;;5069976;28;48321;-76
2022/09/08 13:16:31;;;;;;;5.57;0.30;;;23.80;89.00;;;;;;5064797;28;45327;-77
2022/09/08 13:19:17;;;;;;;0.98;0.20;;;23.80;88.80;;;;;;5064037;28;45384;-76
2022/09/08 13:22:07;;;;;;;2.40;0.10;;;23.80;88.90;;;;;;5067682;28;47274;-76
2022/09/08 13:24:42;;;;;;;2.25;0.30;;;23.80;88.70;;;;;;5063855;28;45143;-76
2022/09/08 13:27:18;;;;;;;0.35;0.20;;;23.80;88.30;;;;;;5067405;28;45111;-76
2022/09/08 13:30:05;;;;;;;0.30;0.10;;;23.80;88.40;;;;;;5067932;28;45147;-77
2022/09/08 13:32:48;;;;;;;0.57;0.20;;;23.80;88.00;;;;;;5064474;28;46237;-76
2022/09/08 13:35:38;;;;;;;0.10;0.10;;;23.80;88.00;;;;;;5067362;28;45218;-76
2022/09/08 13:38:26;;;;;;;0.80;0.30;;;23.80;88.00;;;;;;5067603;28;45274;-76
2022/09/08 13:41:05;;;;;;;0.25;0.10;;;23.80;88.20;;;;;;5067487;28;45477;-76
2022/09/08 13:43:59;;;;;;;0.25;0.15;;;23.80;88.40;;;;;;5066782;28;48033;-76
2022/09/08 13:46:36;;;;;;;0.22;0.10;;;23.80;87.70;;;;;;5067159;28;45394;-76
2022/09/08 13:49:25;;;;;;;0.10;0.10;;;23.80;88.20;;;;;;5066927;28;45459;-76
2022/09/08 13:52:43;;;;;;;0.10;0.10;;;23.80;87.50;;;;;;5067213;28;45135;-76
2022/09/08 13:55:28;;;;;;;0.98;0.20;;;23.80;88.50;;;;;;5004959;28;47970;-76
2022/09/08 13:58:32;;;;;;;0.10;0.10;;;23.80;87.70;;;;;;5005143;28;45244;-76
2022/09/08 14:01:06;;;;;;;0.10;0.10;;;23.80;87.80;;;;;;5055882;28;45300;-76
2022/09/08 14:03:38;;;;;;;0.10;0.10;;;23.80;88.10;;;;;;5068658;28;45195;-76
2022/09/08 14:06:10;;;;;;;0.17;0.17;;;23.80;87.80;;;;;;5066422;28;47943;-76
2022/09/08 14:08:45;;;;;;;0.45;0.10;;;23.80;87.60;;;;;;5064125;28;45289;-76
2022/09/08 14:15:15;;;;;;;0.10;0.10;;;23.80;87.10;;;;;;5064176;28;45166;-76
2022/09/08 14:18:22;;;;;;;0.20;0.15;;;23.80;87.30;;;;;;5066355;28;46360;-76
2022/09/08 14:24:41;;;;;;;0.10;0.10;;;23.80;87.10;;;;;;5063965;28;45402;-77
2022/09/08 14:27:24;;;;;;;0.17;0.10;;;23.80;87.30;;;;;;5066616;28;45476;-76
2022/09/08 14:30:02;;;;;;;2.55;0.17;;;23.80;87.60;;;;;;5066187;28;46268;-76
2022/09/08 14:32:43;;;;;;;0.17;0.17;;;23.80;87.40;;;;;;5066311;28;45704;-77
2022/09/08 14:35:42;;;;;;;0.30;0.20;;;23.80;87.10;;;;;;5063816;28;45292;-76
2022/09/08 14:38:48;;;;;;;0.20;0.20;;;23.80;86.60;;;;;;5065175;28;45559;-76
2022/09/08 14:41:33;;;;;;;0.10;0.10;;;23.90;86.50;;;;;;5018216;28;46562;-76
2022/09/08 14:44:34;;;;;;;0.30;0.20;;;23.90;86.50;;;;;;5066218;28;45191;-76
2022/09/08 14:50:32;;;;;;;0.38;0.20;;;23.90;86.40;;;;;;5063402;28;45265;-76
2022/09/08 14:53:30;;;;;;;0.30;0.20;;;23.90;86.60;;;;;;5066226;28;48292;-76
2022/09/08 14:56:02;;;;;;;0.17;0.10;;;23.90;86.60;;;;;;5032750;28;45354;-76
2022/09/08 15:05:18;;;;;;;0.57;0.20;;;23.90;85.90;;;;;;5065673;28;45393;-76
2022/09/08 15:07:51;;;;;;;1.05;0.25;;;23.90;85.90;;;;;;5065977;28;45154;-76
2022/09/08 15:10:22;;;;;;;0.30;0.13;;;23.90;85.90;;;;;;5066449;28;45190;-76
2022/09/08 15:13:05;;;;;;;0.70;0.20;;;23.90;85.70;;;;;;5066232;28;45198;-77
2022/09/08 15:45:54;;;;;;;1.23;0.30;;;23.80;84.80;;;;;;4831377;28;45204;-77
2022/09/08 15:48:40;;;;;;;1.70;0.32;;;23.90;84.80;;;;;;4986808;28;45254;-78
2022/09/08 15:51:16;;;;;;;0.30;0.20;;;23.80;84.70;;;;;;5015311;28;45443;-77
2022/09/08 15:54:02;;;;;;;1.30;0.50;;;23.80;84.80;;;;;;5068760;28;46304;-76
2022/09/08 15:57:01;;;;;;;1.38;0.30;;;23.80;84.30;;;;;;5068161;28;45226;-76
2022/09/08 15:59:46;;;;;;;1.17;0.30;;;23.80;85.20;;;;;;5052930;28;45479;-76
2022/09/08 16:02:24;;;;;;;0.80;0.20;;;23.80;84.20;;;;;;5068937;28;45449;-77
2022/09/08 16:05:05;;;;;;;1.98;0.95;;;23.80;84.30;;;;;;5068664;28;48218;-77
2022/09/08 16:07:45;;;;;;;3.47;1.55;;;23.80;84.50;;;;;;5068411;28;45086;-77
2022/09/08 16:10:14;;;;;;;7.38;3.10;;;23.80;84.40;;;;;;5068994;28;45361;-76
2022/09/08 16:13:04;;;;;;;7.38;2.60;;;23.80;84.40;;;;;;5069060;28;45449;-77
2022/09/08 16:15:41;;;;;;;6.72;3.90;;;23.90;84.30;;;;;;5068544;28;45676;-77
2022/09/08 16:18:28;;;;;;;7.00;3.70;;;23.80;84.30;;;;;;5068602;28;46396;-77
2022/09/08 16:21:05;;;;;;;7.15;3.20;;;23.80;84.30;;;;;;5068344;28;45381;-76
2022/09/08 16:23:39;;;;;;;4.88;2.47;;;23.80;84.30;;;;;;5068639;28;45142;-77
2022/09/08 16:26:23;;;;;;;5.10;2.50;;;23.80;84.20;;;;;;5068195;28;47925;-77
2022/09/08 16:29:01;;;;;;;5.63;2.53;;;23.80;84.00;;;;;;5068294;28;45213;-77
2022/09/08 16:31:40;;;;;;;6.10;2.40;;;23.80;84.00;;;;;;5068896;28;45188;-77
2022/09/08 16:34:28;;;;;;;6.20;2.85;;;23.80;83.90;;;;;;5068572;28;45123;-78
2022/09/08 16:37:21;;;;;;;7.57;2.90;;;23.80;83.80;;;;;;5068585;28;47778;-78
2022/09/08 16:40:12;;;;;;;6.18;2.83;;;23.80;83.80;;;;;;5069257;28;45263;-77
2022/09/08 16:42:49;;;;;;;6.15;2.95;;;23.80;83.90;;;;;;5068691;28;45135;-78
2022/09/08 16:45:42;;;;;;;6.70;2.90;;;23.80;84.00;;;;;;5068163;28;45088;-77
2022/09/08 16:48:16;;;;;;;9.82;3.10;;;23.80;83.90;;;;;;5068044;28;46580;-78
2022/09/08 16:50:58;;;;;;;6.25;3.20;;;23.80;83.60;;;;;;5068183;28;45312;-77
2022/09/08 16:53:32;;;;;;;7.25;2.63;;;23.80;83.80;;;;;;5068596;28;45224;-77
2022/09/08 16:56:04;;;;;;;7.55;3.03;;;23.80;83.60;;;;;;5068390;28;45464;-78
2022/09/08 16:58:32;;;;;;;6.32;3.13;;;23.80;83.90;;;;;;5068180;28;47888;-77
2022/09/08 17:01:13;;;;;;;8.05;3.47;;;23.80;83.90;;;;;;5066790;28;45379;-78
2022/09/08 17:03:50;;;;;;;7.75;3.55;;;23.80;83.70;;;;;;5064325;28;45295;-75
2022/09/08 17:06:30;;;;;;;8.48;3.28;;;23.80;83.70;;;;;;5061055;28;45642;-74
2022/09/08 17:09:12;;;;;;;9.65;3.88;;;23.90;84.40;;;;;;5065045;28;48333;-75
2022/09/08 17:12:14;;;;;;;13.50;5.18;;;23.90;85.40;;;;;;5066797;28;45473;-79
2022/09/08 17:14:41;;;;;;;9.68;4.32;;;23.90;87.50;;;;;;4986625;28;45326;-77
2022/09/08 17:17:34;;;;;;;11.10;4.70;;;23.90;87.00;;;;;;5051472;28;45629;-77
2022/09/08 17:20:10;;;;;;;12.15;4.35;;;23.90;87.40;;;;;;5067676;28;46500;-77
2022/09/08 17:23:15;;;;;;;9.65;4.60;;;23.90;87.50;;;;;;5068105;28;45182;-77
2022/09/08 17:25:50;;;;;;;9.43;4.50;;;23.80;87.50;;;;;;5050979;28;45119;-78
2022/09/08 17:29:00;;;;;;;9.15;4.30;;;23.80;88.00;;;;;;5064693;28;45194;-77
2022/09/08 17:34:49;;;;;;;9.63;4.00;;;23.80;89.60;;;;;;5065242;28;45277;-77
2022/09/08 17:37:20;;;;;;;7.20;3.50;;;23.80;89.60;;;;;;5067439;28;45367;-77
2022/09/08 17:39:50;;;;;;;5.88;3.55;;;23.80;90.00;;;;;;5067741;28;45528;-78
2022/09/08 17:42:26;;;;;;;6.80;3.70;;;23.80;90.20;;;;;;5067014;28;47583;-77
2022/09/08 17:45:02;;;;;;;6.47;3.15;;;23.80;90.40;;;;;;5067394;28;45217;-77
2022/09/08 17:47:47;;;;;;;8.00;3.55;;;23.80;90.60;;;;;;5067530;28;45192;-78
2022/09/08 17:50:23;;;;;;;6.22;2.80;;;23.70;90.50;;;;;;5067282;28;45095;-78
2022/09/08 17:52:59;;;;;;;7.20;2.88;;;23.70;90.50;;;;;;5066988;28;46548;-77
2022/09/08 17:55:39;;;;;;;6.57;3.00;;;23.70;90.60;;;;;;5066890;28;45146;-77
2022/09/08 17:58:16;;;;;;;6.68;3.30;;;23.80;90.70;;;;;;5067085;28;45205;-77
2022/09/08 18:00:49;;;;;;;6.18;2.72;;;23.80;90.80;;;;;;5064214;28;45127;-78
2022/09/08 18:03:54;;;;;;;5.15;2.63;;;23.80;90.90;;;;;;5063806;28;46366;-77
2022/09/08 18:06:28;;;;;;;5.53;2.88;;;23.70;91.00;;;;;;5066325;28;45222;-77
2022/09/08 18:09:04;;;;;;;3.60;2.20;;;23.80;91.00;;;;;;5067206;28;45328;-77
2022/09/08 18:11:34;;;;;;;5.28;2.33;;;23.80;91.10;;;;;;5066601;28;45160;-77
2022/09/08 18:14:13;;;;;;;5.80;2.35;;;23.80;91.10;;;;;;5066692;28;45537;-77
2022/09/08 18:20:13;;;;;;;3.50;2.03;;;23.80;91.30;;;;;;5063891;28;45184;-77
2022/09/08 18:22:54;;;;;;;4.40;1.88;;;23.80;91.10;;;;;;5066756;28;45148;-77
2022/09/08 18:25:37;;;;;;;4.18;1.73;;;23.80;90.90;;;;;;5066772;28;47939;-76
2022/09/08 18:34:59;;;;;;;3.17;1.55;;;23.70;90.50;;;;;;5063541;28;45151;-76
2022/09/08 18:37:27;;;;;;;3.17;1.48;;;23.70;90.50;;;;;;5066046;28;46840;-76
2022/09/08 18:39:57;;;;;;;2.50;1.58;;;23.70;90.60;;;;;;5066620;28;45369;-77
2022/09/08 18:42:50;;;;;;;3.15;1.50;;;23.70;90.50;;;;;;5066166;28;45342;-76
2022/09/08 18:45:42;;;;;;;2.38;1.33;;;23.70;91.10;;;;;;5065962;28;45555;-76
2022/09/08 18:48:22;;;;;;;3.97;1.65;;;23.70;90.90;;;;;;5065932;28;45397;-76
2022/09/08 18:51:14;;;;;;;1.95;1.15;;;23.70;91.10;;;;;;5065298;28;45401;-76
2022/09/08 18:54:26;;;;;;;3.38;1.40;;;23.70;91.50;;;;;;5066064;28;45313;-76
2022/09/08 18:56:56;;;;;;;2.78;1.35;;;23.70;91.80;;;;;;5065532;28;45324;-76
2022/09/08 18:59:48;;;;;;;2.00;1.15;;;23.70;91.90;;;;;;5064952;28;46611;-76
2022/09/08 19:02:49;;;;;;;1.85;1.10;;;23.70;92.10;;;;;;5055133;28;45139;-76
2022/09/08 19:05:24;;;;;;;1.65;1.05;;;23.80;92.20;;;;;;5066084;28;45258;-75
2022/09/08 19:08:09;;;;;;;2.67;1.20;;;23.70;92.10;;;;;;5065897;28;45299;-76
2022/09/08 19:14:18;;;;;;;1.60;0.80;;;23.80;92.40;;;;;;5062686;28;45143;-76
2022/09/08 19:16:51;;;;;;;1.23;0.95;;;23.70;92.50;;;;;;5065412;28;45349;-75
2022/09/08 19:19:22;;;;;;;2.17;0.90;;;23.70;92.50;;;;;;5067480;28;45199;-76
2022/09/08 19:21:49;;;;;;;3.45;1.20;;;23.80;92.60;;;;;;5065510;28;47320;-76
2022/09/08 19:27:49;;;;;;;1.65;0.80;;;23.70;92.60;;;;;;5069185;28;45407;-76
2022/09/08 19:30:24;;;;;;;1.38;0.80;;;23.70;92.60;;;;;;5069268;28;45429;-77
2022/09/08 19:33:00;;;;;;;1.63;0.80;;;23.70;92.70;;;;;;5069148;28;45282;-77
2022/09/08 19:35:30;;;;;;;1.52;0.82;;;23.70;92.70;;;;;;5066072;28;45138;-77
2022/09/08 19:38:18;;;;;;;1.30;0.77;;;23.70;92.70;;;;;;5069314;28;45296;-77
2022/09/08 19:41:03;;;;;;;1.45;0.70;;;23.70;92.80;;;;;;5069128;28;45118;-77
2022/09/08 19:43:51;;;;;;;0.85;0.50;;;23.70;92.60;;;;;;5069173;28;47697;-76
2022/09/08 19:46:37;;;;;;;1.08;0.68;;;23.70;92.80;;;;;;5069157;28;45056;-77
2022/09/08 19:49:10;;;;;;;0.80;0.60;;;23.70;92.80;;;;;;5068829;28;45280;-76
2022/09/08 19:51:50;;;;;;;0.95;0.52;;;23.70;92.80;;;;;;5068762;28;45550;-76
2022/09/08 19:54:45;;;;;;;0.98;0.70;;;23.70;92.80;;;;;;5068276;28;46449;-76
2022/09/08 19:57:30;;;;;;;0.70;0.50;;;23.70;93.00;;;;;;5067874;28;45312;-76
2022/09/08 20:00:01;;;;;;;0.60;0.40;;;23.70;93.10;;;;;;5068156;28;45366;-76
2022/09/08 20:02:37;;;;;;;1.35;0.77;;;23.70;93.00;;;;;;5068731;28;45403;-76
2022/09/08 20:05:16;;;;;;;0.40;0.40;;;23.70;93.10;;;;;;5068090;28;48897;-76
2022/09/08 20:07:55;;;;;;;0.50;0.50;;;23.70;93.20;;;;;;5067925;28;45381;-76
2022/09/08 20:13:51;;;;;;;0.60;0.40;;;23.70;93.20;;;;;;5065802;28;45238;-76